Stations météo

réclame
Mon MeteoGroup
Bramham, Grande-Bretagne (99077): Température de l'air & dewpoint: 16.09.2020 15:00:00 - 22.09.2020 15:00:00 (BST)Bramham, Grande-Bretagne (99077): Vitesse du vent: 16.09.2020 15:00:00 - 22.09.2020 15:00:00 (BST)Bramham, Grande-Bretagne (99077): Direction du vent: 16.09.2020 15:00:00 - 22.09.2020 15:00:00 (BST)Bramham, Grande-Bretagne (99077): Quantités de précipitations: 16.09.2020 15:00:00 - 22.09.2020 15:00:00 (BST)
Date & Time tt [°C] td [°C] ff [km/h] ff [knt] dd rr [mm]
22.09.2020 15:00:00 20,9 14,1 18 10 WSW 0,0
22.09.2020 14:00:00 23,3 14,5 28 15 SSW 0,0
22.09.2020 13:00:00 23,0 14,7 15 8 S 0,0
22.09.2020 12:00:00 20,4 14,3 15 8 S 0,0
22.09.2020 11:00:00 17,9 13,0 15 8 S 0,0
22.09.2020 10:00:00 16,1 13,3 9 5 SSE 0,0
22.09.2020 09:00:00 13,2 12,3 8 4 SSE 0,0
22.09.2020 08:00:00 10,3 10,2 4 2 SSE 0,0
22.09.2020 07:00:00 9,0 8,6 4 2 WNW 0,0
22.09.2020 06:00:00 9,7 9,3 4 2 SW 0,0
22.09.2020 05:00:00 10,1 9,8 4 2 WSW 0,0
22.09.2020 04:00:00 10,0 9,6 5 3 S 0,0
22.09.2020 03:00:00 10,5 9,9 8 4 WNW 0,0
22.09.2020 02:00:00 10,5 9,5 5 3 S 0,0
22.09.2020 01:00:00 11,2 10,6 4 2 SSW 0,0
22.09.2020 00:00:00 11,1 10,4 4 2 S 0,0
21.09.2020 23:00:00 10,9 9,1 2 1 SW 0,0
21.09.2020 22:00:00 12,3 9,5 4 2 SW 0,0
21.09.2020 21:00:00 14,7 11,0 9 5 SW 0,0
21.09.2020 20:00:00 15,4 10,4 5 3 W 0,0
21.09.2020 19:00:00 17,5 11,7 9 5 W 0,0
21.09.2020 18:00:00 19,3 11,4 15 8 WSW 0,0
21.09.2020 17:00:00 20,3 11,6 16 9 W 0,0
21.09.2020 16:00:00 21,2 12,2 16 9 WSW 0,0
21.09.2020 15:00:00 20,9 11,0 16 9 WSW 0,0
21.09.2020 14:00:00 20,4 11,1 18 10 WSW 0,0
21.09.2020 13:00:00 19,2 12,2 13 7 WSW 0,0
21.09.2020 12:00:00 18,1 12,3 13 7 SW 0,0
21.09.2020 11:00:00 15,3 11,1 13 7 SSW 0,0
21.09.2020 10:00:00 13,5 10,2 13 7 SSW 0,0
21.09.2020 09:00:00 11,0 9,5 11 6 SSW 0,0
21.09.2020 08:00:00 9,1 8,7 9 5 SSW 0,0
21.09.2020 07:00:00 8,0 7,9 2 1 S 0,0
21.09.2020 06:00:00 7,6 7,4 5 3 SSE 0,0
21.09.2020 05:00:00 8,2 7,8 2 1 W 0,0
21.09.2020 04:00:00 8,9 8,2 4 2 SSE 0,0
21.09.2020 03:00:00 10,2 8,6 4 2 SSE 0,0
21.09.2020 02:00:00 10,7 8,8 0 0 N 0,0
21.09.2020 01:00:00 11,1 9,1 2 1 SE 0,0
21.09.2020 00:00:00 11,2 8,8 4 2 SSE 0,0
20.09.2020 23:00:00 11,8 8,9 9 5 ESE 0,0
20.09.2020 22:00:00 12,4 9,2 8 4 E 0,0
20.09.2020 21:00:00 12,0 9,1 8 4 E 0,0
20.09.2020 20:00:00 12,5 9,6 9 5 E 0,0
20.09.2020 19:00:00 14,1 9,7 8 4 ENE 0,0
20.09.2020 18:00:00 15,8 9,8 15 8 ENE 0,0
20.09.2020 17:00:00 16,7 10,2 15 8 ENE 0,0
20.09.2020 16:00:00 16,6 9,6 15 8 ENE 0,0
20.09.2020 15:00:00 18,2 10,8 15 8 E 0,0
20.09.2020 14:00:00 16,3 10,5 15 8 NE 0,0
20.09.2020 13:00:00 15,1 11,3 15 8 NNE 0,0
20.09.2020 12:00:00 15,1 11,6 13 7 NE 0,0
20.09.2020 11:00:00 14,7 11,8 8 4 NE 0,0
20.09.2020 10:00:00 13,8 12,0 11 6 NE 0,0
20.09.2020 09:00:00 13,0 10,8 9 5 NNE 0,0
20.09.2020 08:00:00 12,6 9,8 15 8 NE 0,0
20.09.2020 07:00:00 11,9 9,9 9 5 NE 0,0
20.09.2020 06:00:00 11,3 10,1 11 6 N 0,0
20.09.2020 05:00:00 11,2 9,9 11 6 NNE 0,0
20.09.2020 04:00:00 11,1 9,6 11 6 N 0,0
20.09.2020 03:00:00 11,5 9,9 13 7 N 0,0
20.09.2020 02:00:00 11,4 9,7 15 8 N 0,0
20.09.2020 01:00:00 11,3 9,3 11 6 N 0,0
20.09.2020 00:00:00 11,2 9,2 11 6 N 0,0
19.09.2020 23:00:00 11,9 9,8 13 7 N 0,0
19.09.2020 22:00:00 12,4 10,1 16 9 N 0,0
19.09.2020 21:00:00 12,9 10,5 13 7 NNE 0,0
19.09.2020 20:00:00 13,0 10,4 13 7 NNE 0,0
19.09.2020 19:00:00 13,9 9,6 16 9 NE 0,0
19.09.2020 18:00:00 15,8 9,5 24 13 NE 0,0
19.09.2020 17:00:00 17,1 9,6 24 13 NE 0,0
19.09.2020 16:00:00 18,0 10,1 24 13 NE 0,0
19.09.2020 15:00:00 17,8 9,4 28 15 NE 0,0
19.09.2020 14:00:00 17,6 9,5 26 14 NE 0,0
19.09.2020 13:00:00 17,6 10,0 24 13 NNE 0,0
19.09.2020 12:00:00 17,1 9,8 24 13 NE 0,0
19.09.2020 11:00:00 16,1 10,0 22 12 NE 0,0
19.09.2020 10:00:00 13,7 10,0 16 9 N 0,0
19.09.2020 09:00:00 12,6 9,7 16 9 N 0,0
19.09.2020 08:00:00 10,6 8,8 13 7 N 0,0
19.09.2020 07:00:00 10,2 8,6 15 8 N 0,0
19.09.2020 06:00:00 10,3 8,5 15 8 N 0,0
19.09.2020 05:00:00 11,2 9,0 15 8 N 0,0
19.09.2020 04:00:00 11,5 8,9 15 8 N 0,0
19.09.2020 03:00:00 11,8 9,1 13 7 NNE 0,0
19.09.2020 02:00:00 11,5 8,9 16 9 NNE 0,0
19.09.2020 01:00:00 12,3 9,1 13 7 NNE 0,0
19.09.2020 00:00:00 12,8 8,9 11 6 NE 0,0
18.09.2020 23:00:00 12,9 8,9 15 8 NE 0,0
18.09.2020 22:00:00 13,0 8,7 21 11 NE 0,0
18.09.2020 21:00:00 13,1 9,1 16 9 ENE 0,0
18.09.2020 20:00:00 13,0 9,0 16 9 ENE 0,0
18.09.2020 19:00:00 13,6 8,9 16 9 ENE 0,0
18.09.2020 18:00:00 14,8 8,9 24 13 ENE 0,0
18.09.2020 17:00:00 16,7 9,2 22 12 ENE 0,0
18.09.2020 16:00:00 18,1 9,0 22 12 ENE 0,0
18.09.2020 15:00:00 18,0 8,5 26 14 ENE 0,0
18.09.2020 14:00:00 17,9 9,2 24 13 E 0,0
18.09.2020 13:00:00 15,9 8,4 21 11 E 0,0
18.09.2020 12:00:00 14,8 9,1 21 11 ENE 0,0
18.09.2020 11:00:00 15,6 10,9 16 9 NE 0,0
18.09.2020 10:00:00 12,2 10,9 9 5 NNE 0,0
18.09.2020 09:00:00 10,1 10,1 13 7 N 0,0
18.09.2020 08:00:00 8,6 8,6 8 4 NW 0,0
18.09.2020 07:00:00 7,7 7,7 8 4 WNW 0,0
18.09.2020 06:00:00 7,5 7,5 5 3 NW 0,0
18.09.2020 05:00:00 7,7 7,7 11 6 NW 0,2
18.09.2020 04:00:00 7,0 7,0 9 5 WNW 0,0
18.09.2020 03:00:00 6,3 6,3 5 3 WNW 0,0
18.09.2020 02:00:00 6,6 6,5 5 3 NW 0,0
18.09.2020 01:00:00 7,5 7,3 4 2 NW 0,0
18.09.2020 00:00:00 9,3 9,2 2 1 ENE 0,0
17.09.2020 23:00:00 10,1 9,8 5 3 E 0,0
17.09.2020 22:00:00 10,1 9,6 9 5 ENE 0,0
17.09.2020 21:00:00 11,7 10,6 13 7 E 0,0
17.09.2020 20:00:00 12,5 10,3 11 6 E 0,0
17.09.2020 19:00:00 14,8 10,5 13 7 E 0,0
17.09.2020 18:00:00 17,2 9,4 15 8 E 0,0
17.09.2020 17:00:00 18,1 8,7 15 8 ENE 0,0
17.09.2020 16:00:00 18,4 9,1 13 7 E 0,0
17.09.2020 15:00:00 18,1 9,2 15 8 E 0,0
17.09.2020 14:00:00 17,8 8,6 11 6 ESE 0,0
17.09.2020 13:00:00 16,9 9,2 13 7 ESE 0,0
17.09.2020 12:00:00 16,0 10,1 11 6 ESE 0,0
17.09.2020 11:00:00 14,3 9,7 13 7 E 0,0
17.09.2020 10:00:00 14,1 10,4 5 3 ENE 0,0
17.09.2020 09:00:00 10,6 9,8 5 3 N 0,0
17.09.2020 08:00:00 8,8 8,7 5 3 NW 0,0
17.09.2020 07:00:00 7,3 7,0 4 2 NW 0,0
17.09.2020 06:00:00 8,5 8,0 0 0 N 0,0
17.09.2020 05:00:00 9,1 8,0 2 1 N 0,0
17.09.2020 04:00:00 10,5 8,8 8 4 NNE 0,0
17.09.2020 03:00:00 11,1 9,0 9 5 NNE 0,0
17.09.2020 02:00:00 11,5 9,2 9 5 N 0,0
17.09.2020 01:00:00 11,5 9,3 9 5 NNE 0,0
17.09.2020 00:00:00 11,8 9,5 9 5 N 0,0
16.09.2020 23:00:00 11,8 9,7 11 6 NNE 0,0
16.09.2020 22:00:00 12,5 10,0 9 5 NNE 0,0
16.09.2020 21:00:00 13,3 9,9 13 7 NE 0,0
16.09.2020 20:00:00 13,6 10,5 9 5 NNE 0,0
16.09.2020 19:00:00 14,1 10,6 13 7 NE 0,0
16.09.2020 18:00:00 14,6 10,9 13 7 NE 0,0
16.09.2020 17:00:00 14,9 11,4 16 9 NNE 0,0
16.09.2020 16:00:00 15,1 11,3 18 10 NNE 0,0
16.09.2020 15:00:00 15,4 11,7 21 11 NNE 0,0

tt = Température de l'air
td = dewpoint
ff = Vitesse du vent
dd = Direction du vent
rr = Quantités de précipitations

stations d'obs. à proximité